sensor_id;sensor_type;location;lat;lon;timestamp;P1;durP1;ratioP1;P2;durP2;ratioP2
80117;SDS011;69424;48.770;-1.564;2023-11-19T00:00:04;5.90;;;1.80;;
80117;SDS011;69424;48.770;-1.564;2023-11-19T00:00:40;6.40;;;1.60;;
80117;SDS011;69424;48.770;-1.564;2023-11-19T00:01:45;6.30;;;1.80;;
80117;SDS011;69424;48.770;-1.564;2023-11-19T00:02:20;8.80;;;2.10;;
80117;SDS011;69424;48.770;-1.564;2023-11-19T00:02:54;9.90;;;2.00;;
80117;SDS011;69424;48.770;-1.564;2023-11-19T00:03:28;7.30;;;1.60;;
80117;SDS011;69424;48.770;-1.564;2023-11-19T00:04:01;7.10;;;1.90;;
80117;SDS011;69424;48.770;-1.564;2023-11-19T00:04:38;13.20;;;2.50;;
80117;SDS011;69424;48.770;-1.564;2023-11-19T00:05:15;9.00;;;1.50;;
80117;SDS011;69424;48.770;-1.564;2023-11-19T00:05:48;8.20;;;1.70;;
80117;SDS011;69424;48.770;-1.564;2023-11-19T00:06:22;6.90;;;2.00;;
80117;SDS011;69424;48.770;-1.564;2023-11-19T00:06:55;11.00;;;2.60;;
80117;SDS011;69424;48.770;-1.564;2023-11-19T00:07:35;9.20;;;1.90;;
80117;SDS011;69424;48.770;-1.564;2023-11-19T00:08:10;9.90;;;1.90;;
80117;SDS011;69424;48.770;-1.564;2023-11-19T00:08:43;8.70;;;1.80;;
80117;SDS011;69424;48.770;-1.564;2023-11-19T00:09:16;5.00;;;1.40;;
80117;SDS011;69424;48.770;-1.564;2023-11-19T00:09:50;11.00;;;2.10;;
80117;SDS011;69424;48.770;-1.564;2023-11-19T00:10:24;9.90;;;1.90;;
80117;SDS011;69424;48.770;-1.564;2023-11-19T00:10:58;6.10;;;1.70;;
80117;SDS011;69424;48.770;-1.564;2023-11-19T00:11:31;8.30;;;1.60;;
80117;SDS011;69424;48.770;-1.564;2023-11-19T00:12:05;10.90;;;2.20;;
80117;SDS011;69424;48.770;-1.564;2023-11-19T00:12:43;9.60;;;1.80;;
80117;SDS011;69424;48.770;-1.564;2023-11-19T00:13:19;6.90;;;1.80;;
80117;SDS011;69424;48.770;-1.564;2023-11-19T00:13:53;8.60;;;2.00;;
80117;SDS011;69424;48.770;-1.564;2023-11-19T00:14:26;7.00;;;1.50;;
80117;SDS011;69424;48.770;-1.564;2023-11-19T00:15:02;12.90;;;2.40;;
80117;SDS011;69424;48.770;-1.564;2023-11-19T00:15:35;8.40;;;2.50;;
80117;SDS011;69424;48.770;-1.564;2023-11-19T00:16:09;8.50;;;1.60;;
80117;SDS011;69424;48.770;-1.564;2023-11-19T00:16:43;9.60;;;2.00;;
80117;SDS011;69424;48.770;-1.564;2023-11-19T00:17:16;7.00;;;1.70;;
80117;SDS011;69424;48.770;-1.564;2023-11-19T00:17:49;7.30;;;1.80;;
80117;SDS011;69424;48.770;-1.564;2023-11-19T00:18:23;10.00;;;1.50;;
80117;SDS011;69424;48.770;-1.564;2023-11-19T00:18:56;7.70;;;1.80;;
80117;SDS011;69424;48.770;-1.564;2023-11-19T00:19:29;6.40;;;1.80;;
80117;SDS011;69424;48.770;-1.564;2023-11-19T00:20:03;9.20;;;1.80;;
80117;SDS011;69424;48.770;-1.564;2023-11-19T00:20:38;9.60;;;2.70;;
80117;SDS011;69424;48.770;-1.564;2023-11-19T00:21:11;11.00;;;2.40;;
80117;SDS011;69424;48.770;-1.564;2023-11-19T00:21:44;5.40;;;1.40;;
80117;SDS011;69424;48.770;-1.564;2023-11-19T00:22:18;6.80;;;1.50;;
80117;SDS011;69424;48.770;-1.564;2023-11-19T00:22:54;7.60;;;1.30;;
80117;SDS011;69424;48.770;-1.564;2023-11-19T00:23:27;8.70;;;1.90;;
80117;SDS011;69424;48.770;-1.564;2023-11-19T00:24:01;5.90;;;1.40;;
80117;SDS011;69424;48.770;-1.564;2023-11-19T00:24:34;7.90;;;1.80;;
80117;SDS011;69424;48.770;-1.564;2023-11-19T00:25:11;8.90;;;1.70;;
80117;SDS011;69424;48.770;-1.564;2023-11-19T00:25:44;8.80;;;1.80;;
80117;SDS011;69424;48.770;-1.564;2023-11-19T00:26:17;7.90;;;2.10;;
80117;SDS011;69424;48.770;-1.564;2023-11-19T00:26:51;8.40;;;1.40;;
80117;SDS011;69424;48.770;-1.564;2023-11-19T00:27:24;10.80;;;2.30;;
80117;SDS011;69424;48.770;-1.564;2023-11-19T00:27:57;10.30;;;2.60;;
80117;SDS011;69424;48.770;-1.564;2023-11-19T00:28:30;7.40;;;2.00;;
80117;SDS011;69424;48.770;-1.564;2023-11-19T00:29:06;8.50;;;1.70;;
80117;SDS011;69424;48.770;-1.564;2023-11-19T00:29:39;9.80;;;1.90;;
80117;SDS011;69424;48.770;-1.564;2023-11-19T00:30:13;9.60;;;1.90;;
80117;SDS011;69424;48.770;-1.564;2023-11-19T00:30:47;8.30;;;2.00;;
80117;SDS011;69424;48.770;-1.564;2023-11-19T00:31:21;9.90;;;1.90;;
80117;SDS011;69424;48.770;-1.564;2023-11-19T00:31:54;7.00;;;1.40;;
80117;SDS011;69424;48.770;-1.564;2023-11-19T00:32:27;11.10;;;2.00;;
80117;SDS011;69424;48.770;-1.564;2023-11-19T00:33:01;9.20;;;2.00;;
80117;SDS011;69424;48.770;-1.564;2023-11-19T00:33:34;11.90;;;1.30;;
80117;SDS011;69424;48.770;-1.564;2023-11-19T00:34:07;9.30;;;1.90;;
80117;SDS011;69424;48.770;-1.564;2023-11-19T00:34:43;10.70;;;2.40;;
80117;SDS011;69424;48.770;-1.564;2023-11-19T00:35:17;8.40;;;2.00;;
80117;SDS011;69424;48.770;-1.564;2023-11-19T00:35:51;6.40;;;1.80;;
80117;SDS011;69424;48.770;-1.564;2023-11-19T00:36:24;9.80;;;2.40;;
80117;SDS011;69424;48.770;-1.564;2023-11-19T00:36:58;7.60;;;1.80;;
80117;SDS011;69424;48.770;-1.564;2023-11-19T00:37:31;7.30;;;1.40;;
80117;SDS011;69424;48.770;-1.564;2023-11-19T00:38:04;7.60;;;1.10;;
80117;SDS011;69424;48.770;-1.564;2023-11-19T00:38:37;7.20;;;1.60;;
80117;SDS011;69424;48.770;-1.564;2023-11-19T00:39:43;8.20;;;1.60;;
80117;SDS011;69424;48.770;-1.564;2023-11-19T00:40:17;6.90;;;1.90;;
80117;SDS011;69424;48.770;-1.564;2023-11-19T00:40:51;8.50;;;2.20;;
80117;SDS011;69424;48.770;-1.564;2023-11-19T00:41:24;6.10;;;1.60;;
80117;SDS011;69424;48.770;-1.564;2023-11-19T00:41:58;8.10;;;2.00;;
80117;SDS011;69424;48.770;-1.564;2023-11-19T00:42:32;7.20;;;1.40;;
80117;SDS011;69424;48.770;-1.564;2023-11-19T00:43:05;6.30;;;1.60;;
80117;SDS011;69424;48.770;-1.564;2023-11-19T00:43:39;13.30;;;2.00;;
80117;SDS011;69424;48.770;-1.564;2023-11-19T00:44:12;5.90;;;1.80;;
80117;SDS011;69424;48.770;-1.564;2023-11-19T00:44:45;8.00;;;1.90;;
80117;SDS011;69424;48.770;-1.564;2023-11-19T00:45:27;9.00;;;1.90;;
80117;SDS011;69424;48.770;-1.564;2023-11-19T00:46:01;6.70;;;1.50;;
80117;SDS011;69424;48.770;-1.564;2023-11-19T00:46:34;10.40;;;1.80;;
80117;SDS011;69424;48.770;-1.564;2023-11-19T00:47:07;9.20;;;2.10;;
80117;SDS011;69424;48.770;-1.564;2023-11-19T00:47:40;6.70;;;1.80;;
80117;SDS011;69424;48.770;-1.564;2023-11-19T00:48:14;7.80;;;1.60;;
80117;SDS011;69424;48.770;-1.564;2023-11-19T00:48:47;8.70;;;2.60;;
80117;SDS011;69424;48.770;-1.564;2023-11-19T00:49:20;10.20;;;2.00;;
80117;SDS011;69424;48.770;-1.564;2023-11-19T00:49:53;10.10;;;2.20;;
80117;SDS011;69424;48.770;-1.564;2023-11-19T00:50:26;7.80;;;1.90;;
80117;SDS011;69424;48.770;-1.564;2023-11-19T00:51:33;7.30;;;1.80;;
80117;SDS011;69424;48.770;-1.564;2023-11-19T00:52:07;7.00;;;1.40;;
80117;SDS011;69424;48.770;-1.564;2023-11-19T00:52:41;7.80;;;1.40;;
80117;SDS011;69424;48.770;-1.564;2023-11-19T00:53:15;8.20;;;2.00;;
80117;SDS011;69424;48.770;-1.564;2023-11-19T00:53:48;7.60;;;2.70;;
80117;SDS011;69424;48.770;-1.564;2023-11-19T00:54:54;7.60;;;1.70;;
80117;SDS011;69424;48.770;-1.564;2023-11-19T00:55:27;9.00;;;2.00;;
80117;SDS011;69424;48.770;-1.564;2023-11-19T00:56:01;9.70;;;1.60;;
80117;SDS011;69424;48.770;-1.564;2023-11-19T00:56:34;4.80;;;1.40;;
80117;SDS011;69424;48.770;-1.564;2023-11-19T00:57:08;5.70;;;1.50;;
80117;SDS011;69424;48.770;-1.564;2023-11-19T00:57:41;8.30;;;2.10;;
80117;SDS011;69424;48.770;-1.564;2023-11-19T00:58:47;10.30;;;1.90;;
80117;SDS011;69424;48.770;-1.564;2023-11-19T00:59:20;8.90;;;2.40;;
80117;SDS011;69424;48.770;-1.564;2023-11-19T00:59:54;4.80;;;1.50;;
80117;SDS011;69424;48.770;-1.564;2023-11-19T01:00:27;10.50;;;1.70;;
80117;SDS011;69424;48.770;-1.564;2023-11-19T01:01:01;12.50;;;2.10;;
80117;SDS011;69424;48.770;-1.564;2023-11-19T01:01:34;11.10;;;1.80;;
80117;SDS011;69424;48.770;-1.564;2023-11-19T01:02:08;16.50;;;2.50;;
80117;SDS011;69424;48.770;-1.564;2023-11-19T01:02:41;10.60;;;1.90;;
80117;SDS011;69424;48.770;-1.564;2023-11-19T01:03:14;7.90;;;1.90;;
80117;SDS011;69424;48.770;-1.564;2023-11-19T01:03:48;7.50;;;1.60;;
80117;SDS011;69424;48.770;-1.564;2023-11-19T01:04:21;9.20;;;1.90;;
80117;SDS011;69424;48.770;-1.564;2023-11-19T01:04:55;15.40;;;2.30;;
80117;SDS011;69424;48.770;-1.564;2023-11-19T01:05:28;8.20;;;1.60;;
80117;SDS011;69424;48.770;-1.564;2023-11-19T01:06:02;9.20;;;1.90;;
80117;SDS011;69424;48.770;-1.564;2023-11-19T01:06:35;11.40;;;2.00;;
80117;SDS011;69424;48.770;-1.564;2023-11-19T01:07:45;15.50;;;2.50;;
80117;SDS011;69424;48.770;-1.564;2023-11-19T01:08:20;11.10;;;1.80;;
80117;SDS011;69424;48.770;-1.564;2023-11-19T01:08:54;9.20;;;1.90;;
80117;SDS011;69424;48.770;-1.564;2023-11-19T01:09:28;8.10;;;1.90;;
80117;SDS011;69424;48.770;-1.564;2023-11-19T01:10:01;11.50;;;2.00;;
80117;SDS011;69424;48.770;-1.564;2023-11-19T01:10:38;10.70;;;1.70;;
80117;SDS011;69424;48.770;-1.564;2023-11-19T01:11:21;12.60;;;2.10;;
80117;SDS011;69424;48.770;-1.564;2023-11-19T01:11:54;7.80;;;2.00;;
80117;SDS011;69424;48.770;-1.564;2023-11-19T01:12:28;10.60;;;1.90;;
80117;SDS011;69424;48.770;-1.564;2023-11-19T01:13:01;10.80;;;2.10;;
80117;SDS011;69424;48.770;-1.564;2023-11-19T01:13:36;10.80;;;1.90;;
80117;SDS011;69424;48.770;-1.564;2023-11-19T01:14:42;7.30;;;1.70;;
80117;SDS011;69424;48.770;-1.564;2023-11-19T01:15:15;10.90;;;2.00;;
80117;SDS011;69424;48.770;-1.564;2023-11-19T01:15:51;6.50;;;1.50;;
80117;SDS011;69424;48.770;-1.564;2023-11-19T01:16:25;9.10;;;2.10;;
80117;SDS011;69424;48.770;-1.564;2023-11-19T01:16:59;9.20;;;2.10;;
80117;SDS011;69424;48.770;-1.564;2023-11-19T01:17:34;8.80;;;1.80;;
80117;SDS011;69424;48.770;-1.564;2023-11-19T01:18:07;8.30;;;2.30;;
80117;SDS011;69424;48.770;-1.564;2023-11-19T01:18:42;9.30;;;2.10;;
80117;SDS011;69424;48.770;-1.564;2023-11-19T01:19:15;10.00;;;2.00;;
80117;SDS011;69424;48.770;-1.564;2023-11-19T01:19:50;11.20;;;2.20;;
80117;SDS011;69424;48.770;-1.564;2023-11-19T01:20:23;9.30;;;2.10;;
80117;SDS011;69424;48.770;-1.564;2023-11-19T01:20:57;10.50;;;1.70;;
80117;SDS011;69424;48.770;-1.564;2023-11-19T01:22:03;10.80;;;1.70;;
80117;SDS011;69424;48.770;-1.564;2023-11-19T01:22:37;7.40;;;1.70;;
80117;SDS011;69424;48.770;-1.564;2023-11-19T01:23:10;8.70;;;1.30;;
80117;SDS011;69424;48.770;-1.564;2023-11-19T01:23:43;10.40;;;2.10;;
80117;SDS011;69424;48.770;-1.564;2023-11-19T01:24:17;10.70;;;1.80;;
80117;SDS011;69424;48.770;-1.564;2023-11-19T01:24:50;9.40;;;1.80;;
80117;SDS011;69424;48.770;-1.564;2023-11-19T01:25:25;10.80;;;2.20;;
80117;SDS011;69424;48.770;-1.564;2023-11-19T01:25:58;11.30;;;1.90;;
80117;SDS011;69424;48.770;-1.564;2023-11-19T01:26:32;9.80;;;1.90;;
80117;SDS011;69424;48.770;-1.564;2023-11-19T01:27:38;8.00;;;1.60;;
80117;SDS011;69424;48.770;-1.564;2023-11-19T01:28:11;11.50;;;2.10;;
80117;SDS011;69424;48.770;-1.564;2023-11-19T01:28:44;12.00;;;2.00;;
80117;SDS011;69424;48.770;-1.564;2023-11-19T01:29:20;9.10;;;2.10;;
80117;SDS011;69424;48.770;-1.564;2023-11-19T01:29:54;9.60;;;2.20;;
80117;SDS011;69424;48.770;-1.564;2023-11-19T01:30:27;7.70;;;1.90;;
80117;SDS011;69424;48.770;-1.564;2023-11-19T01:31:00;10.80;;;2.00;;
80117;SDS011;69424;48.770;-1.564;2023-11-19T01:31:34;8.00;;;1.60;;
80117;SDS011;69424;48.770;-1.564;2023-11-19T01:32:07;7.50;;;1.60;;
80117;SDS011;69424;48.770;-1.564;2023-11-19T01:33:14;9.70;;;2.10;;
80117;SDS011;69424;48.770;-1.564;2023-11-19T01:33:47;7.10;;;1.60;;
80117;SDS011;69424;48.770;-1.564;2023-11-19T01:34:21;8.60;;;2.10;;
80117;SDS011;69424;48.770;-1.564;2023-11-19T01:34:54;11.80;;;2.00;;
80117;SDS011;69424;48.770;-1.564;2023-11-19T01:35:27;13.20;;;2.60;;
80117;SDS011;69424;48.770;-1.564;2023-11-19T01:36:00;8.80;;;1.40;;
80117;SDS011;69424;48.770;-1.564;2023-11-19T01:36:34;11.10;;;1.80;;
80117;SDS011;69424;48.770;-1.564;2023-11-19T01:37:08;7.50;;;1.60;;
80117;SDS011;69424;48.770;-1.564;2023-11-19T01:37:45;9.00;;;2.00;;
80117;SDS011;69424;48.770;-1.564;2023-11-19T01:38:18;8.50;;;1.70;;
80117;SDS011;69424;48.770;-1.564;2023-11-19T01:38:51;8.60;;;1.70;;
80117;SDS011;69424;48.770;-1.564;2023-11-19T01:39:24;12.10;;;2.50;;
80117;SDS011;69424;48.770;-1.564;2023-11-19T01:39:58;7.70;;;1.30;;
80117;SDS011;69424;48.770;-1.564;2023-11-19T01:40:31;10.20;;;1.60;;
80117;SDS011;69424;48.770;-1.564;2023-11-19T01:41:05;8.10;;;1.60;;
80117;SDS011;69424;48.770;-1.564;2023-11-19T01:41:38;8.70;;;1.80;;
80117;SDS011;69424;48.770;-1.564;2023-11-19T01:42:12;7.80;;;1.90;;
80117;SDS011;69424;48.770;-1.564;2023-11-19T01:42:46;9.70;;;1.70;;
80117;SDS011;69424;48.770;-1.564;2023-11-19T01:43:38;11.10;;;2.50;;
80117;SDS011;69424;48.770;-1.564;2023-11-19T01:44:15;10.40;;;1.80;;
80117;SDS011;69424;48.770;-1.564;2023-11-19T01:44:58;11.50;;;2.20;;
80117;SDS011;69424;48.770;-1.564;2023-11-19T01:45:32;9.40;;;1.80;;
80117;SDS011;69424;48.770;-1.564;2023-11-19T01:46:06;12.10;;;2.10;;
80117;SDS011;69424;48.770;-1.564;2023-11-19T01:46:43;13.50;;;2.70;;
80117;SDS011;69424;48.770;-1.564;2023-11-19T01:47:20;12.50;;;2.70;;
80117;SDS011;69424;48.770;-1.564;2023-11-19T01:47:54;13.10;;;2.60;;
80117;SDS011;69424;48.770;-1.564;2023-11-19T01:48:28;14.70;;;3.10;;
80117;SDS011;69424;48.770;-1.564;2023-11-19T01:49:02;16.00;;;2.70;;
80117;SDS011;69424;48.770;-1.564;2023-11-19T01:49:38;13.90;;;2.60;;
80117;SDS011;69424;48.770;-1.564;2023-11-19T01:50:11;12.60;;;2.40;;
80117;SDS011;69424;48.770;-1.564;2023-11-19T01:50:45;9.30;;;1.90;;
80117;SDS011;69424;48.770;-1.564;2023-11-19T01:51:19;14.60;;;2.30;;
80117;SDS011;69424;48.770;-1.564;2023-11-19T01:51:52;11.60;;;2.70;;
80117;SDS011;69424;48.770;-1.564;2023-11-19T01:52:26;14.80;;;2.50;;
80117;SDS011;69424;48.770;-1.564;2023-11-19T01:53:00;19.30;;;2.80;;
80117;SDS011;69424;48.770;-1.564;2023-11-19T01:53:34;14.10;;;2.10;;
80117;SDS011;69424;48.770;-1.564;2023-11-19T01:54:11;17.10;;;2.70;;
80117;SDS011;69424;48.770;-1.564;2023-11-19T01:54:44;10.20;;;2.00;;
80117;SDS011;69424;48.770;-1.564;2023-11-19T01:55:18;9.90;;;2.60;;
80117;SDS011;69424;48.770;-1.564;2023-11-19T01:55:53;14.20;;;2.40;;
80117;SDS011;69424;48.770;-1.564;2023-11-19T01:56:26;10.00;;;2.00;;
80117;SDS011;69424;48.770;-1.564;2023-11-19T01:57:00;9.10;;;2.10;;
80117;SDS011;69424;48.770;-1.564;2023-11-19T01:57:33;12.90;;;2.10;;
80117;SDS011;69424;48.770;-1.564;2023-11-19T01:58:07;11.60;;;2.40;;
80117;SDS011;69424;48.770;-1.564;2023-11-19T01:58:41;13.00;;;2.70;;
80117;SDS011;69424;48.770;-1.564;2023-11-19T01:59:17;13.80;;;2.50;;
80117;SDS011;69424;48.770;-1.564;2023-11-19T01:59:53;10.80;;;1.80;;
80117;SDS011;69424;48.770;-1.564;2023-11-19T02:00:26;10.30;;;1.70;;
80117;SDS011;69424;48.770;-1.564;2023-11-19T02:01:00;9.90;;;2.30;;
80117;SDS011;69424;48.770;-1.564;2023-11-19T02:01:36;12.50;;;2.10;;
80117;SDS011;69424;48.770;-1.564;2023-11-19T02:02:13;9.70;;;2.40;;
80117;SDS011;69424;48.770;-1.564;2023-11-19T02:02:46;10.40;;;2.00;;
80117;SDS011;69424;48.770;-1.564;2023-11-19T02:03:21;12.10;;;2.40;;
80117;SDS011;69424;48.770;-1.564;2023-11-19T02:03:54;12.60;;;2.90;;
80117;SDS011;69424;48.770;-1.564;2023-11-19T02:04:28;10.30;;;2.10;;
80117;SDS011;69424;48.770;-1.564;2023-11-19T02:05:02;10.30;;;2.20;;
80117;SDS011;69424;48.770;-1.564;2023-11-19T02:05:35;8.70;;;1.70;;
80117;SDS011;69424;48.770;-1.564;2023-11-19T02:06:10;14.90;;;2.30;;
80117;SDS011;69424;48.770;-1.564;2023-11-19T02:06:44;10.00;;;2.30;;
80117;SDS011;69424;48.770;-1.564;2023-11-19T02:07:19;14.40;;;2.20;;
80117;SDS011;69424;48.770;-1.564;2023-11-19T02:07:53;10.10;;;1.90;;
80117;SDS011;69424;48.770;-1.564;2023-11-19T02:08:59;12.10;;;2.30;;
80117;SDS011;69424;48.770;-1.564;2023-11-19T02:09:42;11.10;;;1.70;;
80117;SDS011;69424;48.770;-1.564;2023-11-19T02:10:15;10.80;;;2.60;;
80117;SDS011;69424;48.770;-1.564;2023-11-19T02:10:52;11.90;;;2.30;;
80117;SDS011;69424;48.770;-1.564;2023-11-19T02:11:28;16.40;;;2.30;;
80117;SDS011;69424;48.770;-1.564;2023-11-19T02:12:02;11.10;;;2.10;;
80117;SDS011;69424;48.770;-1.564;2023-11-19T02:12:36;12.00;;;2.00;;
80117;SDS011;69424;48.770;-1.564;2023-11-19T02:13:09;13.00;;;2.40;;
80117;SDS011;69424;48.770;-1.564;2023-11-19T02:13:43;13.00;;;1.90;;
80117;SDS011;69424;48.770;-1.564;2023-11-19T02:14:17;12.10;;;2.20;;
80117;SDS011;69424;48.770;-1.564;2023-11-19T02:14:50;11.50;;;2.20;;
80117;SDS011;69424;48.770;-1.564;2023-11-19T02:15:59;8.50;;;1.80;;
80117;SDS011;69424;48.770;-1.564;2023-11-19T02:16:33;12.10;;;2.10;;
80117;SDS011;69424;48.770;-1.564;2023-11-19T02:17:07;17.70;;;2.40;;
80117;SDS011;69424;48.770;-1.564;2023-11-19T02:18:17;16.10;;;2.50;;
80117;SDS011;69424;48.770;-1.564;2023-11-19T02:19:00;11.10;;;2.10;;
80117;SDS011;69424;48.770;-1.564;2023-11-19T02:19:34;13.20;;;2.60;;
80117;SDS011;69424;48.770;-1.564;2023-11-19T02:20:07;11.20;;;1.90;;
80117;SDS011;69424;48.770;-1.564;2023-11-19T02:20:44;13.90;;;2.40;;
80117;SDS011;69424;48.770;-1.564;2023-11-19T02:21:17;13.80;;;2.70;;
80117;SDS011;69424;48.770;-1.564;2023-11-19T02:21:51;16.40;;;2.80;;
80117;SDS011;69424;48.770;-1.564;2023-11-19T02:22:24;15.50;;;3.00;;
80117;SDS011;69424;48.770;-1.564;2023-11-19T02:22:57;12.00;;;2.40;;
80117;SDS011;69424;48.770;-1.564;2023-11-19T02:23:31;15.20;;;1.80;;
80117;SDS011;69424;48.770;-1.564;2023-11-19T02:24:06;19.30;;;2.60;;
80117;SDS011;69424;48.770;-1.564;2023-11-19T02:24:41;14.70;;;2.80;;
80117;SDS011;69424;48.770;-1.564;2023-11-19T02:25:25;14.60;;;2.40;;
80117;SDS011;69424;48.770;-1.564;2023-11-19T02:26:56;11.70;;;2.10;;
80117;SDS011;69424;48.770;-1.564;2023-11-19T02:28:31;11.50;;;2.10;;
80117;SDS011;69424;48.770;-1.564;2023-11-19T02:29:06;13.30;;;2.70;;
80117;SDS011;69424;48.770;-1.564;2023-11-19T02:29:40;13.00;;;2.40;;
80117;SDS011;69424;48.770;-1.564;2023-11-19T02:30:14;14.10;;;2.70;;
80117;SDS011;69424;48.770;-1.564;2023-11-19T02:30:47;15.60;;;2.30;;
80117;SDS011;69424;48.770;-1.564;2023-11-19T02:31:20;13.40;;;2.80;;
80117;SDS011;69424;48.770;-1.564;2023-11-19T02:31:55;18.00;;;3.10;;
80117;SDS011;69424;48.770;-1.564;2023-11-19T02:32:29;16.60;;;2.70;;
80117;SDS011;69424;48.770;-1.564;2023-11-19T02:33:03;14.90;;;2.10;;
80117;SDS011;69424;48.770;-1.564;2023-11-19T02:33:38;13.50;;;3.00;;
80117;SDS011;69424;48.770;-1.564;2023-11-19T02:34:12;15.60;;;3.10;;
80117;SDS011;69424;48.770;-1.564;2023-11-19T02:34:45;15.70;;;3.00;;
80117;SDS011;69424;48.770;-1.564;2023-11-19T02:35:19;15.90;;;2.50;;
80117;SDS011;69424;48.770;-1.564;2023-11-19T02:35:52;19.70;;;2.70;;
80117;SDS011;69424;48.770;-1.564;2023-11-19T02:36:25;16.40;;;2.70;;
80117;SDS011;69424;48.770;-1.564;2023-11-19T02:36:58;17.20;;;3.00;;
80117;SDS011;69424;48.770;-1.564;2023-11-19T02:37:31;15.80;;;2.40;;
80117;SDS011;69424;48.770;-1.564;2023-11-19T02:38:05;17.60;;;2.70;;
80117;SDS011;69424;48.770;-1.564;2023-11-19T02:38:39;15.00;;;2.60;;
80117;SDS011;69424;48.770;-1.564;2023-11-19T02:39:12;23.60;;;2.50;;
80117;SDS011;69424;48.770;-1.564;2023-11-19T02:39:46;15.70;;;2.90;;
80117;SDS011;69424;48.770;-1.564;2023-11-19T02:40:20;15.90;;;3.20;;
80117;SDS011;69424;48.770;-1.564;2023-11-19T02:40:55;15.50;;;3.20;;
80117;SDS011;69424;48.770;-1.564;2023-11-19T02:41:29;17.60;;;2.80;;
80117;SDS011;69424;48.770;-1.564;2023-11-19T02:42:02;16.10;;;3.20;;
80117;SDS011;69424;48.770;-1.564;2023-11-19T02:42:36;15.10;;;2.70;;
80117;SDS011;69424;48.770;-1.564;2023-11-19T02:43:09;21.60;;;3.30;;
80117;SDS011;69424;48.770;-1.564;2023-11-19T02:43:42;11.70;;;2.30;;
80117;SDS011;69424;48.770;-1.564;2023-11-19T02:44:16;16.70;;;3.40;;
80117;SDS011;69424;48.770;-1.564;2023-11-19T02:44:49;18.00;;;2.90;;
80117;SDS011;69424;48.770;-1.564;2023-11-19T02:45:24;14.70;;;2.80;;
80117;SDS011;69424;48.770;-1.564;2023-11-19T02:46:01;21.60;;;2.90;;
80117;SDS011;69424;48.770;-1.564;2023-11-19T02:46:47;13.50;;;2.40;;
80117;SDS011;69424;48.770;-1.564;2023-11-19T02:47:21;14.00;;;3.30;;
80117;SDS011;69424;48.770;-1.564;2023-11-19T02:47:56;18.00;;;3.20;;
80117;SDS011;69424;48.770;-1.564;2023-11-19T02:48:30;15.30;;;3.70;;
80117;SDS011;69424;48.770;-1.564;2023-11-19T02:49:03;15.40;;;3.10;;
80117;SDS011;69424;48.770;-1.564;2023-11-19T02:49:36;13.20;;;3.20;;
80117;SDS011;69424;48.770;-1.564;2023-11-19T02:50:10;12.70;;;2.40;;
80117;SDS011;69424;48.770;-1.564;2023-11-19T02:50:47;13.80;;;2.20;;
80117;SDS011;69424;48.770;-1.564;2023-11-19T02:51:21;14.20;;;2.40;;
80117;SDS011;69424;48.770;-1.564;2023-11-19T02:51:54;14.80;;;2.80;;
80117;SDS011;69424;48.770;-1.564;2023-11-19T02:52:27;14.90;;;2.90;;
80117;SDS011;69424;48.770;-1.564;2023-11-19T02:53:01;11.00;;;2.40;;
80117;SDS011;69424;48.770;-1.564;2023-11-19T02:53:35;14.60;;;2.60;;
80117;SDS011;69424;48.770;-1.564;2023-11-19T02:54:10;13.00;;;2.50;;
80117;SDS011;69424;48.770;-1.564;2023-11-19T02:54:43;16.00;;;2.70;;
80117;SDS011;69424;48.770;-1.564;2023-11-19T02:55:16;14.90;;;2.40;;
80117;SDS011;69424;48.770;-1.564;2023-11-19T02:55:50;13.60;;;2.20;;
80117;SDS011;69424;48.770;-1.564;2023-11-19T02:56:24;21.30;;;3.20;;
80117;SDS011;69424;48.770;-1.564;2023-11-19T02:57:02;17.80;;;3.40;;
80117;SDS011;69424;48.770;-1.564;2023-11-19T02:57:40;14.30;;;3.00;;
80117;SDS011;69424;48.770;-1.564;2023-11-19T02:58:26;9.90;;;2.40;;
80117;SDS011;69424;48.770;-1.564;2023-11-19T02:59:02;12.40;;;2.40;;
80117;SDS011;69424;48.770;-1.564;2023-11-19T02:59:47;14.00;;;2.40;;
80117;SDS011;69424;48.770;-1.564;2023-11-19T03:00:22;15.80;;;3.00;;
80117;SDS011;69424;48.770;-1.564;2023-11-19T03:01:24;14.90;;;2.40;;
80117;SDS011;69424;48.770;-1.564;2023-11-19T03:02:07;13.60;;;2.40;;
80117;SDS011;69424;48.770;-1.564;2023-11-19T03:02:45;14.10;;;2.70;;
80117;SDS011;69424;48.770;-1.564;2023-11-19T03:03:27;14.20;;;2.60;;
80117;SDS011;69424;48.770;-1.564;2023-11-19T03:04:11;13.00;;;2.60;;
80117;SDS011;69424;48.770;-1.564;2023-11-19T03:04:45;13.20;;;2.40;;
80117;SDS011;69424;48.770;-1.564;2023-11-19T03:05:19;12.10;;;2.60;;
80117;SDS011;69424;48.770;-1.564;2023-11-19T03:05:52;17.20;;;3.00;;
80117;SDS011;69424;48.770;-1.564;2023-11-19T03:06:25;17.30;;;2.60;;
80117;SDS011;69424;48.770;-1.564;2023-11-19T03:07:00;11.90;;;2.40;;
80117;SDS011;69424;48.770;-1.564;2023-11-19T03:07:33;16.10;;;2.80;;
80117;SDS011;69424;48.770;-1.564;2023-11-19T03:08:07;14.60;;;2.60;;
80117;SDS011;69424;48.770;-1.564;2023-11-19T03:09:13;18.70;;;2.80;;
80117;SDS011;69424;48.770;-1.564;2023-11-19T03:09:46;15.90;;;3.60;;
80117;SDS011;69424;48.770;-1.564;2023-11-19T03:10:20;14.60;;;3.00;;
80117;SDS011;69424;48.770;-1.564;2023-11-19T03:10:53;11.40;;;2.60;;
80117;SDS011;69424;48.770;-1.564;2023-11-19T03:11:27;15.60;;;2.70;;
80117;SDS011;69424;48.770;-1.564;2023-11-19T03:12:01;11.40;;;2.30;;
80117;SDS011;69424;48.770;-1.564;2023-11-19T03:12:34;10.90;;;2.70;;
80117;SDS011;69424;48.770;-1.564;2023-11-19T03:13:11;15.00;;;2.70;;
80117;SDS011;69424;48.770;-1.564;2023-11-19T03:13:46;14.20;;;2.40;;
80117;SDS011;69424;48.770;-1.564;2023-11-19T03:14:20;20.30;;;3.60;;
80117;SDS011;69424;48.770;-1.564;2023-11-19T03:14:54;13.60;;;3.00;;
80117;SDS011;69424;48.770;-1.564;2023-11-19T03:15:28;17.80;;;2.70;;
80117;SDS011;69424;48.770;-1.564;2023-11-19T03:16:01;15.70;;;2.80;;
80117;SDS011;69424;48.770;-1.564;2023-11-19T03:16:35;17.60;;;3.20;;
80117;SDS011;69424;48.770;-1.564;2023-11-19T03:17:08;13.80;;;3.00;;
80117;SDS011;69424;48.770;-1.564;2023-11-19T03:17:42;13.70;;;2.70;;
80117;SDS011;69424;48.770;-1.564;2023-11-19T03:18:15;19.00;;;2.50;;
80117;SDS011;69424;48.770;-1.564;2023-11-19T03:18:49;11.40;;;2.60;;
80117;SDS011;69424;48.770;-1.564;2023-11-19T03:19:22;17.00;;;2.80;;
80117;SDS011;69424;48.770;-1.564;2023-11-19T03:19:58;17.60;;;2.80;;
80117;SDS011;69424;48.770;-1.564;2023-11-19T03:20:31;14.80;;;2.90;;
80117;SDS011;69424;48.770;-1.564;2023-11-19T03:21:08;15.60;;;3.30;;
80117;SDS011;69424;48.770;-1.564;2023-11-19T03:21:41;17.10;;;2.70;;
80117;SDS011;69424;48.770;-1.564;2023-11-19T03:22:14;17.40;;;3.60;;
80117;SDS011;69424;48.770;-1.564;2023-11-19T03:22:48;14.10;;;2.90;;
80117;SDS011;69424;48.770;-1.564;2023-11-19T03:23:21;15.90;;;3.10;;
80117;SDS011;69424;48.770;-1.564;2023-11-19T03:23:55;16.20;;;2.70;;
80117;SDS011;69424;48.770;-1.564;2023-11-19T03:24:28;11.70;;;2.70;;
80117;SDS011;69424;48.770;-1.564;2023-11-19T03:25:02;16.30;;;2.50;;
80117;SDS011;69424;48.770;-1.564;2023-11-19T03:25:35;18.30;;;3.00;;
80117;SDS011;69424;48.770;-1.564;2023-11-19T03:26:10;21.20;;;3.30;;
80117;SDS011;69424;48.770;-1.564;2023-11-19T03:26:48;17.20;;;2.90;;
80117;SDS011;69424;48.770;-1.564;2023-11-19T03:27:24;17.20;;;2.80;;
80117;SDS011;69424;48.770;-1.564;2023-11-19T03:27:57;13.20;;;2.90;;
80117;SDS011;69424;48.770;-1.564;2023-11-19T03:28:31;16.20;;;3.20;;
80117;SDS011;69424;48.770;-1.564;2023-11-19T03:29:05;16.60;;;3.00;;
80117;SDS011;69424;48.770;-1.564;2023-11-19T03:29:38;15.70;;;2.40;;
80117;SDS011;69424;48.770;-1.564;2023-11-19T03:30:11;12.10;;;2.60;;
80117;SDS011;69424;48.770;-1.564;2023-11-19T03:30:45;20.50;;;3.40;;
80117;SDS011;69424;48.770;-1.564;2023-11-19T03:31:18;16.20;;;3.10;;
80117;SDS011;69424;48.770;-1.564;2023-11-19T03:31:52;15.90;;;2.60;;